createdAt,value
2018-09-19T00:01:17.700Z,56.80
2018-09-19T00:03:44.157Z,56.80
2018-09-19T00:06:10.604Z,56.80
2018-09-19T00:08:37.139Z,56.80
2018-09-19T00:11:03.593Z,56.70
2018-09-19T00:13:30.030Z,56.70
2018-09-19T00:15:57.086Z,56.70
2018-09-19T00:18:23.590Z,56.60
2018-09-19T00:20:50.127Z,56.70
2018-09-19T00:23:16.638Z,56.60
2018-09-19T00:25:43.103Z,56.60
2018-09-19T00:28:09.570Z,56.60
2018-09-19T00:30:36.714Z,56.50
2018-09-19T00:33:03.185Z,56.60
2018-09-19T00:35:29.647Z,56.60
2018-09-19T00:37:56.131Z,56.60
2018-09-19T00:40:22.698Z,56.50
2018-09-19T00:42:49.218Z,56.50
2018-09-19T00:45:15.686Z,56.50
2018-09-19T00:47:42.144Z,56.50
2018-09-19T00:50:08.612Z,56.50
2018-09-19T00:52:35.237Z,56.40
2018-09-19T00:55:01.728Z,56.40
2018-09-19T00:57:28.207Z,56.50
2018-09-19T00:59:55.063Z,56.40
2018-09-19T01:02:21.576Z,56.50
2018-09-19T01:04:48.024Z,56.50
2018-09-19T01:07:14.520Z,56.50
2018-09-19T01:09:40.983Z,56.40
2018-09-19T01:12:07.470Z,56.40
2018-09-19T01:14:33.986Z,56.40
2018-09-19T01:17:00.433Z,56.40
2018-09-19T01:19:26.906Z,56.20
2018-09-19T01:21:53.381Z,56.40
2018-09-19T01:24:19.883Z,56.40
2018-09-19T01:26:46.369Z,56.30
2018-09-19T01:29:12.855Z,56.30
2018-09-19T01:31:39.516Z,56.40
2018-09-19T01:34:05.953Z,56.40
2018-09-19T01:36:32.475Z,56.30
2018-09-19T01:38:58.983Z,56.40
2018-09-19T01:41:25.532Z,56.40
2018-09-19T01:43:51.990Z,56.40
2018-09-19T01:46:18.603Z,56.30
2018-09-19T01:48:45.102Z,56.30
2018-09-19T01:51:11.982Z,56.30
2018-09-19T01:53:38.452Z,56.40
2018-09-19T01:56:04.933Z,56.40
2018-09-19T01:58:31.412Z,56.40
2018-09-19T02:00:57.851Z,56.20
2018-09-19T02:03:24.340Z,56.40
2018-09-19T02:05:51.720Z,56.30
2018-09-19T02:08:18.182Z,55.70
2018-09-19T02:10:45.281Z,56.30
2018-09-19T02:13:12.469Z,56.20
2018-09-19T02:15:39.707Z,56.30
2018-09-19T02:18:06.167Z,56.30
2018-09-19T02:20:33.279Z,56.30
2018-09-19T02:23:00.076Z,56.30
2018-09-19T02:25:26.514Z,56.20
2018-09-19T02:27:53.042Z,56.20
2018-09-19T02:30:19.514Z,56.30
2018-09-19T02:32:46.037Z,56.30
2018-09-19T02:35:12.520Z,56.30
2018-09-19T02:37:39.022Z,56.20
2018-09-19T02:40:05.487Z,56.30
2018-09-19T02:42:32.002Z,56.20
2018-09-19T02:44:58.519Z,56.20
2018-09-19T02:47:25.015Z,56.20
2018-09-19T02:49:51.619Z,56.10
2018-09-19T02:52:18.077Z,56.10
2018-09-19T02:54:44.558Z,56.10
2018-09-19T02:57:11.032Z,56.20
2018-09-19T02:59:37.507Z,56.20
2018-09-19T03:02:03.994Z,56.70
2018-09-19T03:04:30.724Z,56.20
2018-09-19T03:06:57.877Z,56.10
2018-09-19T03:09:24.326Z,56.10
2018-09-19T03:11:50.770Z,56.10
2018-09-19T03:14:17.276Z,56.20
2018-09-19T03:16:43.741Z,56.80
2018-09-19T03:19:10.212Z,56.10
2018-09-19T03:21:36.639Z,56.30
2018-09-19T03:24:03.093Z,56.20
2018-09-19T03:26:29.545Z,56.20
2018-09-19T03:28:56.060Z,56.20
2018-09-19T03:31:22.513Z,56.20
2018-09-19T03:33:49.651Z,56.20
2018-09-19T03:36:16.137Z,56.10
2018-09-19T03:38:43.220Z,56.10
2018-09-19T03:41:09.688Z,56.10
2018-09-19T03:43:36.231Z,56.20
2018-09-19T03:46:02.836Z,56.10
2018-09-19T03:48:29.418Z,56.70
2018-09-19T03:50:55.914Z,56.10
2018-09-19T03:53:22.422Z,56.10
2018-09-19T03:55:49.480Z,56.50
2018-09-19T03:58:16.083Z,56.10
2018-09-19T04:00:42.560Z,56.20
2018-09-19T04:03:09.051Z,56.10
2018-09-19T04:05:35.488Z,56.70
2018-09-19T04:08:02.095Z,56.10
2018-09-19T04:10:28.612Z,56.10
2018-09-19T04:12:55.057Z,56.20
2018-09-19T04:15:21.526Z,56.10
2018-09-19T04:17:48.104Z,56.20
2018-09-19T04:20:14.584Z,56.20
2018-09-19T04:22:41.074Z,56.30
2018-09-19T04:25:07.554Z,56.30
2018-09-19T04:27:34.051Z,56.30
2018-09-19T04:30:00.542Z,56.90
2018-09-19T04:32:27.093Z,56.20
2018-09-19T04:34:53.567Z,56.40
2018-09-19T04:37:20.043Z,56.30
2018-09-19T04:39:46.491Z,56.60
2018-09-19T04:42:13.049Z,56.30
2018-09-19T04:44:39.559Z,56.40
2018-09-19T04:47:05.990Z,56.40
2018-09-19T04:49:32.491Z,56.40
2018-09-19T04:51:58.939Z,56.50
2018-09-19T04:54:25.400Z,56.60
2018-09-19T04:56:51.837Z,56.70
2018-09-19T04:59:18.344Z,56.70
2018-09-19T05:01:44.799Z,56.80
2018-09-19T05:04:11.280Z,56.90
2018-09-19T05:06:37.873Z,56.80
2018-09-19T05:09:04.557Z,56.70
2018-09-19T05:11:31.071Z,56.70
2018-09-19T05:13:57.478Z,56.90
2018-09-19T05:16:23.947Z,57.10
2018-09-19T05:18:50.770Z,56.90
2018-09-19T05:21:17.253Z,57.00
2018-09-19T05:23:43.809Z,57.10
2018-09-19T05:26:10.297Z,57.10
2018-09-19T05:28:36.803Z,56.40
2018-09-19T05:31:03.309Z,57.20
2018-09-19T05:33:29.797Z,57.20
2018-09-19T05:35:56.255Z,57.30
2018-09-19T05:38:22.733Z,57.20
2018-09-19T05:40:49.389Z,57.70
2018-09-19T05:43:15.904Z,57.50
2018-09-19T05:45:44.291Z,57.40
2018-09-19T05:48:10.887Z,57.70
2018-09-19T05:50:37.380Z,57.60
2018-09-19T05:53:03.939Z,57.60
2018-09-19T05:55:30.392Z,57.60
2018-09-19T05:57:56.877Z,57.80
2018-09-19T06:00:23.354Z,57.70
2018-09-19T06:02:49.896Z,57.80
2018-09-19T06:05:16.375Z,57.90
2018-09-19T06:07:42.855Z,57.70
2018-09-19T06:10:09.390Z,57.60
2018-09-19T06:12:35.870Z,57.60
2018-09-19T06:15:02.379Z,57.60
2018-09-19T06:17:28.983Z,57.60
2018-09-19T06:19:55.525Z,57.60
2018-09-19T06:22:22.326Z,58.20
2018-09-19T06:24:49.752Z,57.40
2018-09-19T06:27:16.217Z,57.70
2018-09-19T06:29:42.790Z,57.50
2018-09-19T06:32:09.261Z,57.60
2018-09-19T06:34:36.387Z,57.40
2018-09-19T06:37:02.971Z,57.40
2018-09-19T06:39:29.480Z,57.40
2018-09-19T06:41:56.027Z,57.30
2018-09-19T06:44:26.789Z,57.40
2018-09-19T06:46:53.390Z,57.00
2018-09-19T06:49:19.889Z,57.50
2018-09-19T06:51:46.365Z,57.40
2018-09-19T06:54:12.841Z,57.40
2018-09-19T06:56:39.354Z,57.30
2018-09-19T06:59:05.825Z,57.30
2018-09-19T07:01:32.325Z,57.20
2018-09-19T07:03:58.916Z,57.30
2018-09-19T07:06:25.424Z,57.30
2018-09-19T07:08:52.610Z,57.30
2018-09-19T07:11:19.446Z,57.30
2018-09-19T07:13:46.184Z,57.20
2018-09-19T07:16:12.651Z,57.10
2018-09-19T07:18:39.149Z,57.10
2018-09-19T07:21:05.648Z,57.10
2018-09-19T07:23:32.116Z,57.10
2018-09-19T07:25:59.136Z,57.10
2018-09-19T07:28:25.592Z,57.10
2018-09-19T07:30:52.450Z,57.10
2018-09-19T07:33:19.151Z,57.20
2018-09-19T07:35:45.622Z,57.10
2018-09-19T07:38:12.076Z,57.00
2018-09-19T07:40:38.617Z,57.10
2018-09-19T07:43:05.072Z,57.10
2018-09-19T07:45:31.572Z,57.10
2018-09-19T07:47:58.024Z,57.10
2018-09-19T07:50:24.470Z,57.10
2018-09-19T07:52:50.963Z,57.10
2018-09-19T07:55:17.480Z,57.10
2018-09-19T07:57:43.963Z,57.00
2018-09-19T08:00:10.437Z,56.90
2018-09-19T08:02:36.906Z,57.00
2018-09-19T08:05:03.393Z,56.90
2018-09-19T08:07:29.879Z,57.00
2018-09-19T08:09:56.737Z,57.00
2018-09-19T08:12:23.214Z,57.10
2018-09-19T08:14:49.687Z,57.10
2018-09-19T08:17:16.189Z,57.00
2018-09-19T08:19:42.659Z,56.90
2018-09-19T08:22:09.175Z,56.80
2018-09-19T08:24:35.631Z,56.90
2018-09-19T08:27:02.116Z,56.90
2018-09-19T08:29:28.612Z,56.90
2018-09-19T08:31:55.070Z,56.50
2018-09-19T08:34:21.559Z,57.10
2018-09-19T08:36:48.931Z,57.00
2018-09-19T08:39:15.446Z,57.10
2018-09-19T08:41:41.915Z,57.10
2018-09-19T08:44:08.409Z,57.00
2018-09-19T08:46:35.968Z,57.40
2018-09-19T08:49:02.460Z,57.10
2018-09-19T08:51:28.990Z,56.90
2018-09-19T08:53:55.842Z,56.90
2018-09-19T08:56:22.729Z,56.90
2018-09-19T08:58:49.170Z,56.70
2018-09-19T09:01:15.624Z,56.90
2018-09-19T09:03:42.106Z,56.90
2018-09-19T09:06:08.631Z,56.90
2018-09-19T09:08:35.127Z,57.00
2018-09-19T09:11:01.702Z,57.60
2018-09-19T09:13:28.241Z,56.90
2018-09-19T09:15:54.744Z,56.80
2018-09-19T09:18:21.392Z,56.90
2018-09-19T09:21:00.028Z,57.00
2018-09-19T09:23:36.416Z,56.80
2018-09-19T09:26:03.031Z,56.90
2018-09-19T09:28:29.466Z,56.90
2018-09-19T09:30:55.964Z,56.90
2018-09-19T09:33:22.458Z,56.90
2018-09-19T09:35:48.897Z,56.80
2018-09-19T09:38:15.349Z,56.90
2018-09-19T09:40:41.894Z,56.90
2018-09-19T09:43:08.357Z,56.90
2018-09-19T09:45:34.867Z,57.00
2018-09-19T09:48:01.344Z,57.00
2018-09-19T09:50:27.902Z,56.90
2018-09-19T09:52:54.329Z,56.90
2018-09-19T09:55:21.004Z,57.00
2018-09-19T09:57:47.504Z,56.90
2018-09-19T10:00:18.526Z,56.80
2018-09-19T10:02:44.998Z,57.50
2018-09-19T10:05:11.478Z,57.30
2018-09-19T10:07:37.974Z,56.70
2018-09-19T10:10:04.450Z,56.90
2018-09-19T10:12:30.937Z,56.70
2018-09-19T10:14:57.404Z,56.60
2018-09-19T10:17:23.982Z,56.70
2018-09-19T10:19:50.428Z,56.70
2018-09-19T10:22:17.170Z,56.30
2018-09-19T10:24:44.307Z,56.70
2018-09-19T10:27:10.751Z,56.80
2018-09-19T10:29:37.252Z,56.80
2018-09-19T10:32:03.747Z,56.90
2018-09-19T10:34:30.220Z,56.90
2018-09-19T10:36:57.081Z,57.10
2018-09-19T10:39:23.576Z,56.90
2018-09-19T10:41:50.228Z,56.70
2018-09-19T10:44:16.712Z,56.60
2018-09-19T10:46:43.217Z,56.90
2018-09-19T10:49:09.710Z,57.50
2018-09-19T10:51:36.277Z,57.20
2018-09-19T10:54:02.752Z,58.10
2018-09-19T10:56:29.248Z,58.30
2018-09-19T10:58:55.746Z,58.40
2018-09-19T11:01:22.215Z,58.50
2018-09-19T11:03:48.720Z,58.70
2018-09-19T11:06:15.205Z,58.60
2018-09-19T11:08:41.711Z,58.70
2018-09-19T11:11:08.523Z,58.60
2018-09-19T11:13:35.171Z,58.70
2018-09-19T11:16:02.359Z,58.60
2018-09-19T11:18:28.849Z,59.70
2018-09-19T11:20:55.375Z,58.60
2018-09-19T11:23:21.959Z,58.60
2018-09-19T11:25:48.461Z,58.50
2018-09-19T11:28:14.930Z,58.40
2018-09-19T11:30:41.381Z,58.40
2018-09-19T11:33:07.867Z,58.50
2018-09-19T11:35:34.344Z,58.70
2018-09-19T11:38:01.512Z,58.50
2018-09-19T11:40:28.043Z,58.40
2018-09-19T11:42:54.559Z,58.30
2018-09-19T11:45:21.408Z,58.40
2018-09-19T11:47:47.860Z,58.70
2018-09-19T11:50:14.355Z,58.40
2018-09-19T11:52:40.820Z,58.50
2018-09-19T11:55:07.257Z,58.90
2018-09-19T11:57:33.713Z,58.90
2018-09-19T12:00:00.270Z,58.70
2018-09-19T12:02:26.752Z,58.90
2018-09-19T12:04:53.297Z,58.80
2018-09-19T12:07:19.827Z,58.90
2018-09-19T12:09:46.468Z,58.90
2018-09-19T12:12:12.916Z,58.70
2018-09-19T12:14:39.374Z,58.90
2018-09-19T12:17:05.828Z,58.90
2018-09-19T12:19:32.367Z,58.90
2018-09-19T12:21:58.819Z,58.90
2018-09-19T12:24:25.280Z,58.90
2018-09-19T12:26:51.830Z,58.90
2018-09-19T12:29:18.289Z,58.80
2018-09-19T12:31:44.751Z,58.80
2018-09-19T12:34:11.247Z,58.80
2018-09-19T12:36:37.729Z,58.90
2018-09-19T12:39:04.476Z,58.80
2018-09-19T12:41:30.945Z,58.90
2018-09-19T12:43:57.405Z,58.30
2018-09-19T12:46:23.853Z,58.10
2018-09-19T12:48:50.451Z,58.50
2018-09-19T12:51:16.926Z,58.10
2018-09-19T12:53:43.363Z,58.00
2018-09-19T12:56:09.973Z,57.90
2018-09-19T12:58:36.696Z,57.80
2018-09-19T13:01:03.119Z,58.00
2018-09-19T13:03:29.579Z,57.80
2018-09-19T13:05:56.061Z,57.90
2018-09-19T13:08:23.065Z,57.70
2018-09-19T13:10:49.551Z,58.00
2018-09-19T13:13:16.063Z,58.20
2018-09-19T13:15:43.587Z,58.30
2018-09-19T13:18:10.080Z,58.30
2018-09-19T13:20:37.331Z,58.20
2018-09-19T13:23:03.827Z,58.10
2018-09-19T13:25:30.332Z,58.30
2018-09-19T13:27:56.963Z,58.20
2018-09-19T13:30:23.446Z,58.20
2018-09-19T13:32:49.953Z,58.70
2018-09-19T13:35:16.437Z,58.30
2018-09-19T13:37:42.974Z,58.40
2018-09-19T13:40:09.457Z,58.30
2018-09-19T13:42:35.967Z,58.40
2018-09-19T13:45:02.450Z,58.50
2018-09-19T13:47:29.002Z,58.40
2018-09-19T13:50:03.546Z,58.30
2018-09-19T13:52:29.981Z,57.40
2018-09-19T13:54:56.987Z,58.40
2018-09-19T13:57:23.443Z,58.50
2018-09-19T13:59:49.919Z,58.40
2018-09-19T14:02:16.391Z,58.40
2018-09-19T14:04:42.923Z,58.30
2018-09-19T14:07:09.377Z,58.30
2018-09-19T14:09:35.832Z,58.40
2018-09-19T14:12:02.299Z,58.30
2018-09-19T14:14:28.800Z,58.30
2018-09-19T14:16:55.236Z,58.30
2018-09-19T14:19:21.674Z,58.30
2018-09-19T14:21:48.160Z,58.40
2018-09-19T14:24:14.868Z,58.40
2018-09-19T14:26:41.410Z,58.20
2018-09-19T14:29:07.901Z,58.30
2018-09-19T14:31:34.382Z,58.30
2018-09-19T14:34:00.902Z,58.20
2018-09-19T14:36:28.023Z,58.20
2018-09-19T14:38:54.624Z,58.30
2018-09-19T14:41:21.283Z,58.30
2018-09-19T14:43:47.683Z,58.20
2018-09-19T14:46:14.131Z,58.10
2018-09-19T14:48:40.672Z,58.20
2018-09-19T14:51:07.086Z,58.20
2018-09-19T14:53:33.590Z,58.20
2018-09-19T14:56:00.047Z,58.20
2018-09-19T14:58:27.053Z,58.10
2018-09-19T15:00:53.659Z,58.10
2018-09-19T15:03:20.184Z,58.10
2018-09-19T15:05:46.693Z,58.10
2018-09-19T15:08:13.157Z,58.00
2018-09-19T15:10:39.615Z,58.00
2018-09-19T15:13:06.131Z,58.00
2018-09-19T15:15:33.917Z,58.30
2018-09-19T15:18:00.458Z,57.90
2018-09-19T15:20:27.027Z,57.90
2018-09-19T15:22:53.503Z,57.90
2018-09-19T15:25:19.971Z,58.40
2018-09-19T15:27:46.467Z,57.90
2018-09-19T15:30:12.977Z,57.80
2018-09-19T15:32:39.500Z,57.90
2018-09-19T15:35:05.973Z,57.90
2018-09-19T15:37:32.958Z,57.90
2018-09-19T15:40:00.055Z,57.80
2018-09-19T15:42:26.594Z,57.80
2018-09-19T15:44:53.253Z,57.80
2018-09-19T15:47:19.764Z,57.70
2018-09-19T15:49:46.284Z,57.70
2018-09-19T15:52:12.769Z,57.80
2018-09-19T15:54:39.258Z,57.70
2018-09-19T15:57:05.801Z,57.70
2018-09-19T15:59:32.264Z,57.60
2018-09-19T16:01:58.777Z,57.60
2018-09-19T16:04:25.246Z,57.70
2018-09-19T16:06:51.711Z,57.60
2018-09-19T16:09:18.172Z,58.10
2018-09-19T16:11:44.664Z,57.60
2018-09-19T16:14:11.166Z,58.20
2018-09-19T16:16:37.665Z,57.60
2018-09-19T16:19:04.126Z,57.60
2018-09-19T16:21:30.680Z,57.50
2018-09-19T16:23:57.204Z,57.50
2018-09-19T16:26:23.956Z,57.40
2018-09-19T16:28:50.411Z,57.40
2018-09-19T16:31:16.878Z,57.40
2018-09-19T16:33:43.328Z,57.50
2018-09-19T16:36:09.790Z,57.60
2018-09-19T16:38:36.273Z,57.50
2018-09-19T16:41:02.790Z,57.40
2018-09-19T16:43:29.908Z,57.50
2018-09-19T16:45:57.233Z,57.70
2018-09-19T16:48:23.656Z,57.70
2018-09-19T16:50:50.162Z,57.60
2018-09-19T16:53:16.632Z,57.50
2018-09-19T16:55:43.112Z,57.10
2018-09-19T16:58:09.582Z,56.90
2018-09-19T17:00:36.064Z,56.60
2018-09-19T17:03:02.665Z,56.30
2018-09-19T17:05:29.118Z,56.10
2018-09-19T17:07:55.696Z,55.90
2018-09-19T17:10:22.180Z,55.50
2018-09-19T17:12:49.191Z,55.40
2018-09-19T17:15:15.752Z,55.30
2018-09-19T17:17:42.228Z,55.40
2018-09-19T17:20:08.691Z,54.70
2018-09-19T17:22:35.165Z,54.00
2018-09-19T17:25:02.707Z,54.00
2018-09-19T17:27:29.192Z,54.40
2018-09-19T17:29:55.690Z,54.00
2018-09-19T17:32:22.245Z,53.70
2018-09-19T17:34:48.891Z,53.50
2018-09-19T17:37:15.442Z,53.10
2018-09-19T17:39:41.901Z,53.60
2018-09-19T17:42:08.441Z,54.80
2018-09-19T17:44:34.957Z,55.90
2018-09-19T17:47:01.455Z,56.30
2018-09-19T17:49:27.941Z,56.00
2018-09-19T17:51:55.045Z,57.10
2018-09-19T17:54:21.563Z,57.10
2018-09-19T17:56:48.741Z,57.20
2018-09-19T17:59:15.207Z,57.80
2018-09-19T18:01:41.683Z,58.40
2018-09-19T18:04:08.267Z,58.80
2018-09-19T18:06:34.984Z,59.20
2018-09-19T18:09:01.435Z,60.60
2018-09-19T18:11:27.896Z,59.90
2018-09-19T18:13:54.384Z,60.10
2018-09-19T18:16:21.621Z,60.40
2018-09-19T18:18:48.199Z,60.80
2018-09-19T18:21:23.882Z,60.80
2018-09-19T18:23:58.371Z,60.80
2018-09-19T18:26:24.848Z,61.60
2018-09-19T18:28:51.332Z,61.10
2018-09-19T18:31:18.053Z,61.00
2018-09-19T18:33:44.517Z,60.70
2018-09-19T18:36:10.991Z,59.70
2018-09-19T18:38:37.514Z,60.60
2018-09-19T18:41:03.933Z,60.60
2018-09-19T18:43:30.391Z,60.50
2018-09-19T18:45:56.842Z,60.30
2018-09-19T18:48:23.301Z,60.30
2018-09-19T18:50:49.794Z,60.10
2018-09-19T18:53:16.280Z,59.80
2018-09-19T18:55:43.249Z,60.00
2018-09-19T18:58:10.270Z,60.20
2018-09-19T19:00:36.784Z,60.00
2018-09-19T19:03:03.293Z,59.90
2018-09-19T19:05:29.813Z,60.00
2018-09-19T19:07:56.313Z,60.00
2018-09-19T19:10:23.429Z,61.00
2018-09-19T19:12:49.940Z,62.10
2018-09-19T19:15:16.399Z,60.90
2018-09-19T19:17:42.850Z,60.40
2018-09-19T19:20:09.335Z,60.00
2018-09-19T19:22:35.875Z,59.90
2018-09-19T19:25:06.680Z,59.80
2018-09-19T19:27:35.436Z,59.80
2018-09-19T19:30:05.160Z,59.60
2018-09-19T19:32:33.040Z,59.60
2018-09-19T19:35:00.352Z,59.70
2018-09-19T19:37:28.548Z,59.70
2018-09-19T19:39:55.107Z,59.90
2018-09-19T19:42:22.159Z,60.10
2018-09-19T19:44:48.678Z,60.10
2018-09-19T19:47:15.306Z,60.20
2018-09-19T19:49:41.803Z,60.50
2018-09-19T19:52:08.310Z,60.20
2018-09-19T19:54:34.817Z,60.90
2018-09-19T19:57:01.288Z,61.50
2018-09-19T19:59:27.749Z,60.80
2018-09-19T20:01:54.215Z,60.90
2018-09-19T20:04:20.659Z,60.80
2018-09-19T20:06:47.147Z,61.10
2018-09-19T20:09:13.627Z,61.40
2018-09-19T20:11:40.144Z,61.20
2018-09-19T20:14:06.820Z,61.20
2018-09-19T20:16:33.333Z,61.30
2018-09-19T20:18:59.893Z,61.30
2018-09-19T20:21:26.370Z,61.40
2018-09-19T20:23:52.831Z,61.00
2018-09-19T20:26:19.343Z,61.50
2018-09-19T20:28:45.830Z,61.80
2018-09-19T20:31:12.337Z,61.80
2018-09-19T20:33:39.172Z,61.80
2018-09-19T20:36:05.670Z,61.80
2018-09-19T20:38:32.158Z,61.90
2018-09-19T20:40:58.862Z,62.10
2018-09-19T20:43:25.380Z,61.90
2018-09-19T20:45:51.863Z,61.90
2018-09-19T20:48:18.350Z,62.00
2018-09-19T20:50:44.858Z,62.00
2018-09-19T20:53:11.376Z,62.00
2018-09-19T20:55:37.839Z,61.70
2018-09-19T20:58:04.351Z,62.00
2018-09-19T21:00:30.890Z,62.00
2018-09-19T21:02:57.742Z,61.60
2018-09-19T21:05:24.202Z,62.00
2018-09-19T21:07:50.682Z,61.80
2018-09-19T21:10:17.263Z,61.90
2018-09-19T21:12:43.892Z,61.90
2018-09-19T21:15:10.400Z,61.80
2018-09-19T21:17:36.900Z,61.90
2018-09-19T21:20:03.343Z,62.20
2018-09-19T21:22:30.822Z,62.30
2018-09-19T21:24:57.252Z,63.00
2018-09-19T21:27:23.728Z,61.90
2018-09-19T21:29:50.165Z,61.90
2018-09-19T21:32:16.692Z,62.00
2018-09-19T21:34:43.172Z,62.40
2018-09-19T21:37:09.685Z,62.80
2018-09-19T21:39:36.186Z,63.10
2018-09-19T21:42:02.651Z,63.10
2018-09-19T21:44:29.201Z,63.60
2018-09-19T21:46:55.718Z,63.50
2018-09-19T21:49:22.224Z,63.50
2018-09-19T21:51:48.708Z,63.20
2018-09-19T21:54:15.177Z,63.70
2018-09-19T21:56:41.661Z,63.80
2018-09-19T21:59:08.133Z,63.80
2018-09-19T22:01:42.559Z,63.80
2018-09-19T22:04:09.315Z,64.70
2018-09-19T22:06:36.132Z,63.50
2018-09-19T22:09:03.062Z,63.80
2018-09-19T22:11:29.543Z,63.30
2018-09-19T22:13:56.001Z,63.50
2018-09-19T22:16:22.468Z,63.60
2018-09-19T22:18:48.968Z,63.60
2018-09-19T22:21:15.437Z,62.50
2018-09-19T22:23:42.454Z,62.80
2018-09-19T22:26:08.973Z,62.00
2018-09-19T22:28:35.405Z,62.00
2018-09-19T22:31:01.900Z,61.80
2018-09-19T22:33:28.427Z,61.70
2018-09-19T22:35:54.925Z,61.30
2018-09-19T22:38:22.066Z,61.10
2018-09-19T22:40:48.510Z,60.80
2018-09-19T22:43:14.982Z,60.70
2018-09-19T22:45:41.527Z,60.70
2018-09-19T22:48:08.508Z,60.50
2018-09-19T22:50:35.617Z,60.70
2018-09-19T22:53:02.668Z,60.40
2018-09-19T22:55:29.702Z,60.00
2018-09-19T22:57:56.172Z,60.00
2018-09-19T23:00:22.666Z,60.50
2018-09-19T23:02:49.108Z,60.10
2018-09-19T23:05:15.587Z,60.10
2018-09-19T23:07:42.063Z,59.90
2018-09-19T23:10:08.552Z,59.90
2018-09-19T23:12:44.894Z,59.80
2018-09-19T23:15:11.400Z,59.80
2018-09-19T23:17:38.165Z,59.70
2018-09-19T23:20:04.630Z,59.70
2018-09-19T23:22:31.145Z,59.50
2018-09-19T23:24:57.735Z,59.50
2018-09-19T23:27:24.202Z,59.40
2018-09-19T23:29:50.931Z,59.40
2018-09-19T23:32:17.517Z,59.40
2018-09-19T23:34:43.984Z,59.30
2018-09-19T23:37:10.423Z,59.30
2018-09-19T23:39:36.864Z,59.20
2018-09-19T23:42:03.465Z,59.20
2018-09-19T23:44:29.955Z,59.10
2018-09-19T23:46:56.387Z,59.10
2018-09-19T23:49:22.869Z,59.00
2018-09-19T23:51:49.462Z,59.00
2018-09-19T23:54:15.949Z,59.00
2018-09-19T23:56:42.392Z,58.90
2018-09-19T23:59:08.865Z,58.90
